Quincy, Illinois
Current Conditions -  °F | °C
As of 8:54 PM on Friday 19 Dec 2014 (Local Time) from KUIN Reporting Station
Overcast Overcast  
Wind Chill: 25°   Ceiling: 5000
Heat Index: 32°   Visibility: 7mi
Dew Point: 26°   Wind: 8mph
Humidity: 79%   Direction: 120°ESE
Pressure: 30.25"   Gusts: NA
Location:  39.94°N, 91.39°W
Report Text: KUIN 200254Z AUTO 12007KT 7SM OVC050 00/M03 A3025 RMK AO2 SLP251 T00001033 55000
Loading
Personal Weather Stations






























Interactive Weather Map New forecast layout! Learn more

10-Day Weather Forecast

Advertisements
Track Severe Weather on mobile